Time;durP1;ratioP1;P1;durP2;ratioP2;P2;SDS_P1;SDS_P2;PMS_P1;PMS_P2;Temp;Humidity;BMP_temperature;BMP_pressure;BME280_temperature;BME280_humidity;BME280_pressure;Samples;Min_cycle;Max_cycle;Signal;HPM_P1;HPM_P2
2023/08/11 00:00:00;;;;;;;4.80;3.60;;;;;;;17.29;100.00;99507.73;109375;1254;62011;-66
2023/08/11 00:02:40;;;;;;;4.10;3.60;;;;;;;17.23;100.00;99510.06;109379;1254;58792;-66
2023/08/11 00:05:08;;;;;;;5.90;3.20;;;;;;;17.15;100.00;99510.31;109406;1254;72676;-66
2023/08/11 00:07:35;;;;;;;4.90;3.80;;;;;;;17.07;100.00;99510.55;109468;1254;67633;-66
2023/08/11 00:10:04;;;;;;;5.40;3.90;;;;;;;17.00;100.00;99508.82;109347;1253;72504;-66
2023/08/11 00:12:32;;;;;;;4.40;4.00;;;;;;;16.94;100.00;99511.98;109403;1254;61667;-66
2023/08/11 00:14:59;;;;;;;5.20;4.30;;;;;;;16.89;100.00;99507.28;109517;1254;58742;-66
2023/08/11 00:17:27;;;;;;;5.10;4.10;;;;;;;16.86;100.00;99510.92;109373;1253;73809;-66
2023/08/11 00:19:54;;;;;;;9.70;5.50;;;;;;;16.83;100.00;99508.45;109449;1254;67635;-66
2023/08/11 00:22:22;;;;;;;8.60;6.00;;;;;;;16.80;100.00;99508.20;109365;1254;71397;-66
2023/08/11 00:24:50;;;;;;;4.90;4.40;;;;;;;16.78;100.00;99513.11;109402;1254;61779;-66
2023/08/11 00:27:18;;;;;;;7.50;4.40;;;;;;;16.77;100.00;99513.66;109375;1254;60131;-66
2023/08/11 00:29:46;;;;;;;5.10;4.50;;;;;;;16.75;100.00;99514.05;109314;1253;74127;-66
2023/08/11 00:32:14;;;;;;;5.90;5.30;;;;;;;16.73;100.00;99514.20;109429;1254;67659;-66
2023/08/11 00:34:41;;;;;;;8.40;5.40;;;;;;;16.75;100.00;99513.34;109369;1253;73097;-66
2023/08/11 00:37:08;;;;;;;7.60;5.80;;;;;;;16.77;100.00;99517.17;109225;1254;61663;-66
2023/08/11 00:39:36;;;;;;;9.20;5.30;;;;;;;16.80;100.00;99520.94;109398;1253;58266;-66
2023/08/11 00:42:03;;;;;;;6.90;6.20;;;;;;;16.82;100.00;99518.86;109351;1252;73929;-66
2023/08/11 00:44:31;;;;;;;9.40;6.50;;;;;;;16.82;100.00;99515.97;109455;1254;67739;-66
2023/08/11 00:46:59;;;;;;;6.70;6.20;;;;;;;16.82;100.00;99512.33;109416;1253;72742;-66
2023/08/11 00:49:27;;;;;;;7.40;6.70;;;;;;;16.83;100.00;99510.64;109446;1252;60408;-66
2023/08/11 00:51:55;;;;;;;9.20;7.40;;;;;;;16.83;100.00;99512.83;109389;1254;58734;-66
2023/08/11 00:54:24;;;;;;;6.90;6.30;;;;;;;16.80;100.00;99508.16;109498;1253;73844;-66
2023/08/11 01:09:28;;;;;;;9.20;8.00;;;;;;;17.18;100.00;99498.71;103328;1285;613642;-67
2023/08/11 01:12:08;;;;;;;11.20;7.60;;;;;;;17.33;100.00;99497.92;104529;1264;98749;-67
2023/08/11 01:15:11;;;;;;;8.70;7.00;;;;;;;17.27;100.00;99496.16;105061;1259;59808;-69
2023/08/11 01:17:39;;;;;;;8.30;7.50;;;;;;;17.19;100.00;99495.37;104889;1257;71456;-67
2023/08/11 01:20:15;;;;;;;8.60;7.80;;;;;;;17.11;100.00;99493.66;105100;1262;68214;-68
2023/08/11 01:22:45;;;;;;;11.40;7.90;;;;;;;17.01;100.00;99492.36;105030;1260;71122;-68
2023/08/11 01:25:12;;;;;;;8.60;7.60;;;;;;;16.94;100.00;99495.07;105163;1257;61776;-66
2023/08/11 01:27:52;;;;;;;9.80;8.00;;;;;;;16.88;100.00;99493.38;105065;1262;59270;-66
2023/08/11 01:30:20;;;;;;;7.60;7.00;;;;;;;16.80;100.00;99494.15;105163;1257;72315;-67
2023/08/11 01:32:47;;;;;;;7.50;6.90;;;;;;;16.71;100.00;99491.40;109053;1256;66298;-69
2023/08/11 01:35:14;;;;;;;8.20;6.60;;;;;;;16.61;100.00;99491.83;109052;1256;72690;-68
2023/08/11 01:37:55;;;;;;;6.50;5.80;;;;;;;16.55;100.00;99494.48;109043;1256;60397;-68
2023/08/11 01:40:23;;;;;;;5.80;5.20;;;;;;;16.53;100.00;99493.39;109031;1256;58453;-68
2023/08/11 01:42:51;;;;;;;6.00;5.40;;;;;;;16.52;100.00;99492.46;109108;1256;73386;-70
2023/08/11 01:45:21;;;;;;;5.30;4.80;;;;;;;16.47;100.00;99493.87;109037;1256;66463;-66
2023/08/11 01:47:49;;;;;;;4.80;4.40;;;;;;;16.42;100.00;99492.77;109074;1256;72653;-68
2023/08/11 01:50:17;;;;;;;6.80;4.20;;;;;;;16.41;100.00;99496.04;108944;1257;61778;-68
2023/08/11 01:52:45;;;;;;;5.40;5.00;;;;;;;16.37;100.00;99492.64;108934;1262;58790;-67
2023/08/11 01:55:13;;;;;;;5.20;4.70;;;;;;;16.36;100.00;99492.17;109083;1256;72136;-68
2023/08/11 01:57:41;;;;;;;6.10;5.10;;;;;;;16.37;100.00;99493.58;108992;1256;68404;-68
2023/08/11 02:00:22;;;;;;;6.40;4.90;;;;;;;16.38;100.00;99497.67;108955;1256;71366;-69
2023/08/11 02:02:50;;;;;;;5.60;5.10;;;;;;;16.36;100.00;99498.67;108968;1257;61752;-69
2023/08/11 02:05:18;;;;;;;6.20;5.60;;;;;;;16.30;100.00;99494.42;109099;1256;60116;-68
2023/08/11 02:07:45;;;;;;;6.40;5.20;;;;;;;16.25;100.00;99498.01;109024;1256;71753;-69
2023/08/11 02:10:13;;;;;;;6.20;5.70;;;;;;;16.20;100.00;99501.00;109078;1256;66695;-67
2023/08/11 02:12:40;;;;;;;7.40;6.10;;;;;;;16.18;100.00;99501.84;109043;1256;72703;-67
2023/08/11 02:15:08;;;;;;;5.80;5.20;;;;;;;16.16;100.00;99502.55;108994;1256;59812;-69
2023/08/11 02:17:37;;;;;;;5.60;4.80;;;;;;;16.16;100.00;99501.97;109010;1257;60009;-67
2023/08/11 02:20:21;;;;;;;8.20;6.00;;;;;;;16.13;100.00;99505.02;109005;1256;72886;-68
2023/08/11 02:22:51;;;;;;;6.80;5.50;;;;;;;16.09;100.00;99504.38;109358;1255;67920;-68
2023/08/11 02:25:18;;;;;;;6.40;5.20;;;;;;;16.07;100.00;99502.58;109211;1256;72784;-67
2023/08/11 02:27:47;;;;;;;5.50;5.00;;;;;;;16.03;100.00;99500.75;109143;1256;60547;-67
2023/08/11 02:30:14;;;;;;;5.80;4.50;;;;;;;16.03;100.00;99506.34;109187;1255;59772;-68
2023/08/11 02:32:45;;;;;;;5.80;5.20;;;;;;;16.04;100.00;99510.08;109226;1255;71337;-69
2023/08/11 02:35:17;;;;;;;5.80;5.20;;;;;;;16.07;100.00;99513.42;109150;1256;67738;-68
2023/08/11 02:37:45;;;;;;;6.20;5.60;;;;;;;16.06;100.00;99510.95;109175;1254;72765;-68
2023/08/11 02:40:12;;;;;;;7.40;5.60;;;;;;;16.00;100.00;99503.48;109159;1256;60918;-68
2023/08/11 02:42:44;;;;;;;6.50;5.60;;;;;;;15.91;100.00;99501.14;109199;1256;58772;-68
2023/08/11 02:45:11;;;;;;;10.10;6.20;;;;;;;15.79;100.00;99504.52;109209;1255;73039;-69
2023/08/11 02:47:39;;;;;;;8.60;6.00;;;;;;;15.69;100.00;99502.42;109190;1256;67581;-70
2023/08/11 02:50:08;;;;;;;6.10;5.50;;;;;;;15.62;100.00;99503.39;109225;1256;72678;-68
2023/08/11 02:52:36;;;;;;;6.40;5.80;;;;;;;15.60;100.00;99507.14;109134;1256;61751;-68
2023/08/11 02:55:04;;;;;;;7.00;6.20;;;;;;;15.60;100.00;99503.74;109256;1256;58780;-69
2023/08/11 02:57:33;;;;;;;9.30;5.70;;;;;;;15.60;100.00;99505.16;109190;1256;73786;-67
2023/08/11 03:00:01;;;;;;;6.60;5.80;;;;;;;15.60;100.00;99501.07;109218;1255;66351;-68
2023/08/11 03:02:28;;;;;;;6.50;5.80;;;;;;;15.59;100.00;99503.25;109232;1253;72713;-67
2023/08/11 03:04:56;;;;;;;7.40;5.70;;;;;;;15.60;100.00;99503.14;109335;1253;61725;-68
2023/08/11 03:07:24;;;;;;;6.80;6.00;;;;;;;15.66;100.00;99500.98;109430;1253;59336;-69
2023/08/11 03:09:51;;;;;;;5.80;5.30;;;;;;;15.75;100.00;99500.74;109421;1252;72326;-68
2023/08/11 03:12:19;;;;;;;6.70;5.60;;;;;;;15.84;100.00;99506.48;109299;1253;66462;-68
2023/08/11 03:14:47;;;;;;;6.70;6.10;;;;;;;15.96;100.00;99522.04;109229;1256;72703;-67
2023/08/11 03:17:15;;;;;;;7.10;6.30;;;;;;;16.15;100.00;99526.86;109385;1253;61751;-67
2023/08/11 03:19:42;;;;;;;8.90;5.60;;;;;;;16.33;100.00;99518.69;109466;1253;59240;-69
2023/08/11 03:22:09;;;;;;;7.20;5.20;;;;;;;16.41;100.00;99514.16;109280;1253;73690;-68
2023/08/11 03:24:37;;;;;;;8.80;5.60;;;;;;;16.50;100.00;99530.17;109333;1253;66304;-68
2023/08/11 03:27:05;;;;;;;5.50;5.00;;;;;;;16.62;100.00;99521.90;109434;1253;72812;-68
2023/08/11 03:29:33;;;;;;;11.30;6.10;;;;;;;16.73;100.00;99515.11;109289;1253;60935;-69
2023/08/11 03:32:01;;;;;;;5.30;4.80;;;;;;;16.80;100.00;99526.46;109266;1253;60222;-68
2023/08/11 03:34:29;;;;;;;6.20;4.90;;;;;;;16.92;100.00;99524.59;109288;1253;73065;-68
2023/08/11 03:36:56;;;;;;;5.10;4.70;;;;;;;17.04;100.00;99513.77;109393;1253;67744;-67
2023/08/11 03:39:23;;;;;;;6.20;4.30;;;;;;;17.12;100.00;99516.10;109301;1253;73139;-68
2023/08/11 03:41:52;;;;;;;6.50;4.40;;;;;;;17.16;100.00;99516.75;109436;1253;61655;-66
2023/08/11 03:44:19;;;;;;;4.80;4.40;;;;;;;17.24;100.00;99513.41;109306;1253;60004;-69
2023/08/11 03:46:47;;;;;;;5.90;4.60;;;;;;;17.35;100.00;99509.45;109323;1253;72106;-67
2023/08/11 03:49:15;;;;;;;5.80;4.90;;;;;;;17.50;100.00;99505.34;109309;1252;67603;-68
2023/08/11 03:51:42;;;;;;;6.10;5.30;;;;;;;17.72;100.00;99512.87;109366;1253;71437;-69
2023/08/11 03:54:10;;;;;;;5.40;4.90;;;;;;;17.96;100.00;99508.09;109477;1253;60082;-68
2023/08/11 03:56:37;;;;;;;5.90;5.20;;;;;;;18.12;100.00;99508.72;109294;1253;58851;-68
2023/08/11 03:59:05;;;;;;;5.50;5.00;;;;;;;18.25;100.00;99504.04;109319;1253;73060;-69
2023/08/11 04:01:33;;;;;;;4.40;4.10;;;;;;;18.39;100.00;99498.86;109473;1253;68004;-67
2023/08/11 04:04:00;;;;;;;4.50;4.20;;;;;;;18.48;100.00;99497.61;109444;1253;72696;-68
2023/08/11 04:06:32;;;;;;;5.90;4.10;;;;;;;18.53;100.00;99496.54;109297;1258;61822;-68
2023/08/11 04:09:01;;;;;;;6.00;4.30;;;;;;;18.61;100.00;99497.12;109425;1253;59026;-69
2023/08/11 04:11:29;;;;;;;4.60;4.20;;;;;;;18.74;100.00;99496.02;109452;1253;73147;-69
2023/08/11 04:13:57;;;;;;;5.00;4.20;;;;;;;18.92;100.00;99494.83;109469;1253;66245;-67
2023/08/11 04:16:24;;;;;;;5.60;3.80;;;;;;;19.12;100.00;99494.86;109447;1253;72597;-68
2023/08/11 04:18:52;;;;;;;3.80;3.50;;;;;;;19.32;100.00;99496.95;109424;1253;62152;-67
2023/08/11 04:21:19;;;;;;;4.50;4.10;;;;;;;19.48;100.00;99497.35;109518;1253;60002;-68
2023/08/11 04:23:46;;;;;;;5.80;4.40;;;;;;;19.55;100.00;99495.65;109444;1253;73037;-66
2023/08/11 04:26:14;;;;;;;9.10;6.50;;;;;;;19.50;100.00;99491.90;109316;1253;66866;-69
2023/08/11 04:28:43;;;;;;;12.20;10.60;;;;;;;19.32;100.00;99491.02;109373;1253;71725;-68
2023/08/11 04:31:13;;;;;;;15.60;12.70;;;;;;;19.11;100.00;99493.87;109425;1253;59236;-68
2023/08/11 04:33:41;;;;;;;22.70;13.50;;;;;;;18.92;100.00;99498.36;109321;1253;58782;-69
2023/08/11 04:36:10;;;;;;;22.10;15.00;;;;;;;18.77;100.00;99501.08;109206;1253;72425;-67
2023/08/11 04:38:38;;;;;;;19.70;14.60;;;;;;;18.66;100.00;99501.14;109304;1253;68195;-69
2023/08/11 04:41:07;;;;;;;21.50;15.40;;;;;;;18.56;100.00;99500.95;109274;1253;72692;-67
2023/08/11 04:43:34;;;;;;;23.40;16.30;;;;;;;18.50;100.00;99500.42;109452;1253;60469;-67
2023/08/11 04:46:03;;;;;;;18.90;14.00;;;;;;;18.42;100.00;99500.90;109397;1254;59203;-69
2023/08/11 04:48:32;;;;;;;17.70;12.80;;;;;;;18.35;100.00;99498.98;109566;1252;73515;-72
2023/08/11 04:51:00;;;;;;;13.40;9.70;;;;;;;18.29;100.00;99498.31;109237;1253;67576;-68
2023/08/11 04:53:27;;;;;;;10.40;9.00;;;;;;;18.25;100.00;99501.04;109275;1253;72679;-68
2023/08/11 04:55:55;;;;;;;9.50;6.50;;;;;;;18.25;100.00;99501.73;109270;1253;61727;-70
2023/08/11 04:58:22;;;;;;;6.80;5.70;;;;;;;18.25;100.00;99503.17;109315;1253;58724;-72
2023/08/11 05:00:50;;;;;;;5.50;4.40;;;;;;;18.26;100.00;99503.70;109302;1253;73096;-68
2023/08/11 05:03:18;;;;;;;7.00;4.00;;;;;;;18.28;100.00;99503.55;109473;1253;66303;-68
2023/08/11 05:05:46;;;;;;;5.40;4.00;;;;;;;18.33;100.00;99506.58;109407;1254;72651;-68
2023/08/11 05:08:13;;;;;;;5.20;3.70;;;;;;;18.40;100.00;99505.07;109396;1253;58765;-71
2023/08/11 05:10:40;;;;;;;4.50;3.90;;;;;;;18.45;100.00;99502.45;109332;1253;60105;-68
2023/08/11 05:13:08;;;;;;;3.70;3.40;;;;;;;18.50;100.00;99505.71;109333;1254;71815;-70
2023/08/11 05:15:37;;;;;;;4.10;3.70;;;;;;;18.55;100.00;99508.20;109309;1253;67214;-69
2023/08/11 05:18:05;;;;;;;4.50;4.10;;;;;;;18.60;100.00;99507.13;109317;1254;72664;-71
2023/08/11 05:20:32;;;;;;;4.10;3.60;;;;;;;18.73;100.00;99509.44;109299;1253;61688;-70
2023/08/11 05:23:00;;;;;;;3.60;3.30;;;;;;;19.12;100.00;99511.11;109295;1253;60127;-68
2023/08/11 05:25:27;;;;;;;4.60;2.90;;;;;;;19.67;100.00;99509.85;109279;1253;72170;-70
2023/08/11 05:27:55;;;;;;;3.20;2.90;;;;;;;20.12;100.00;99507.55;109322;1253;67620;-69
2023/08/11 05:30:26;;;;;;;3.50;2.80;;;;;;;20.46;100.00;99500.54;109306;1253;72195;-70
2023/08/11 05:32:54;;;;;;;3.30;3.00;;;;;;;20.93;100.00;99498.14;109255;1254;60300;-71
2023/08/11 05:35:22;;;;;;;3.30;2.90;;;;;;;21.51;100.00;99491.48;109332;1253;60068;-71
2023/08/11 05:37:49;;;;;;;3.10;2.80;;;;;;;21.97;100.00;99487.83;109317;1253;72534;-70
2023/08/11 05:40:17;;;;;;;4.80;3.10;;;;;;;22.29;100.00;99484.45;109307;1253;66431;-69
2023/08/11 05:42:44;;;;;;;3.70;3.20;;;;;;;22.68;100.00;99483.57;109343;1254;71404;-72
2023/08/11 05:45:11;;;;;;;4.10;3.30;;;;;;;23.14;100.00;99485.60;109185;1253;58838;-66
2023/08/11 05:47:42;;;;;;;4.90;3.60;;;;;;;23.64;100.00;99479.50;109272;1253;58723;-71
2023/08/11 05:50:09;;;;;;;3.60;3.30;;;;;;;23.97;100.00;99479.36;109288;1253;73967;-66
2023/08/11 05:52:37;;;;;;;467.80;422.90;;;;;;;24.21;100.00;99481.31;109292;1253;65977;-70
2023/08/11 05:55:05;;;;;;;147.20;133.20;;;;;;;24.52;100.00;99478.80;109287;1253;72628;-73
2023/08/11 05:57:32;;;;;;;30.20;27.50;;;;;;;24.86;100.00;99475.94;109256;1254;58787;-71
2023/08/11 05:59:59;;;;;;;9.70;8.80;;;;;;;25.18;100.00;99478.63;109285;1253;58647;-72
2023/08/11 06:02:27;;;;;;;6.10;5.50;;;;;;;25.50;100.00;99476.71;109296;1258;73840;-72
2023/08/11 06:04:54;;;;;;;4.30;3.80;;;;;;;25.82;100.00;99472.94;109456;1253;67823;-74
2023/08/11 06:07:22;;;;;;;6.30;4.00;;;;;;;26.08;100.00;99472.83;109337;1255;71360;-73
2023/08/11 06:09:49;;;;;;;4.80;3.70;;;;;;;26.30;100.00;99475.52;109441;1253;58734;-69
2023/08/11 06:12:17;;;;;;;6.30;4.10;;;;;;;26.45;100.00;99477.22;109446;1253;58825;-77
2023/08/11 06:14:44;;;;;;;5.60;4.90;;;;;;;26.63;100.00;99475.19;109347;1253;72606;-74
2023/08/11 06:17:11;;;;;;;4.40;3.90;;;;;;;26.84;100.00;99481.23;109504;1253;67659;-64
2023/08/11 06:19:39;;;;;;;5.30;3.80;;;;;;;27.02;100.00;99482.30;109289;1253;72909;-64
2023/08/11 06:22:07;;;;;;;3.60;3.20;;;;;;;27.19;100.00;99484.71;109268;1253;60040;-62
2023/08/11 06:24:34;;;;;;;3.30;3.00;;;;;;;27.32;100.00;99485.37;109551;1253;59508;-62
2023/08/11 06:27:02;;;;;;;4.00;3.70;;;;;;;27.50;98.78;99485.42;109432;1252;74308;-62
2023/08/11 06:29:29;;;;;;;5.50;3.60;;;;;;;27.63;96.77;99487.49;109501;1253;66363;-63
2023/08/11 06:31:56;;;;;;;3.10;2.70;;;;;;;27.78;95.98;99489.65;109392;1253;72659;-61
2023/08/11 06:34:24;;;;;;;4.00;3.60;;;;;;;27.96;94.07;99494.09;109442;1253;60088;-64
2023/08/11 06:36:52;;;;;;;3.90;3.60;;;;;;;28.05;92.44;99496.41;109443;1252;60098;-63
2023/08/11 06:39:19;;;;;;;6.40;3.60;;;;;;;28.12;91.62;99499.26;109435;1253;72603;-63
2023/08/11 06:41:47;;;;;;;3.80;3.50;;;;;;;28.14;90.25;99501.05;109437;1253;66429;-61
2023/08/11 06:44:14;;;;;;;4.70;3.40;;;;;;;28.16;89.40;99500.42;109480;1253;71327;-65
2023/08/11 06:46:42;;;;;;;4.30;3.90;;;;;;;28.22;88.48;99497.38;109456;1253;58892;-63
2023/08/11 06:49:09;;;;;;;4.60;3.50;;;;;;;28.24;87.45;99500.32;109437;1254;59998;-65
2023/08/11 06:51:36;;;;;;;5.30;3.70;;;;;;;28.20;86.12;99500.95;109414;1253;72659;-69
2023/08/11 06:54:04;;;;;;;3.40;3.10;;;;;;;28.15;85.71;99505.20;109326;1253;67636;-72
2023/08/11 06:56:31;;;;;;;3.70;3.30;;;;;;;28.02;84.40;99508.38;109473;1253;71131;-71
2023/08/11 06:58:59;;;;;;;3.70;3.10;;;;;;;27.72;83.49;99509.10;109474;1253;60491;-71
2023/08/11 07:01:26;;;;;;;5.80;3.30;;;;;;;27.61;83.67;99515.11;109269;1255;59996;-72
2023/08/11 07:03:53;;;;;;;2.70;2.40;;;;;;;27.66;83.04;99511.14;109218;1253;76081;-79
2023/08/11 07:06:21;;;;;;;2.80;2.60;;;;;;;27.69;81.69;99509.54;109287;1254;68057;-73
2023/08/11 07:08:48;;;;;;;2.90;2.20;;;;;;;27.80;82.19;99509.59;109460;1253;71887;-75
2023/08/11 07:11:16;;;;;;;5.20;2.10;;;;;;;27.91;81.81;99512.54;109429;1253;60106;-74
2023/08/11 07:13:43;;;;;;;2.90;2.20;;;;;;;27.79;79.03;99516.27;109444;1253;60116;-70
2023/08/11 07:16:11;;;;;;;2.10;1.80;;;;;;;27.51;78.91;99522.85;109014;1253;72558;-72
2023/08/11 07:18:38;;;;;;;3.10;2.40;;;;;;;27.31;80.67;99519.51;109233;1252;66736;-71
2023/08/11 07:21:05;;;;;;;3.60;2.50;;;;;;;27.23;82.12;99520.19;109334;1252;72633;-71
2023/08/11 07:23:33;;;;;;;4.70;2.80;;;;;;;27.12;82.03;99519.02;109399;1253;60087;-70
2023/08/11 07:26:00;;;;;;;267.20;243.30;;;;;;;27.10;83.57;99517.10;109529;1253;60460;-71
2023/08/11 07:28:27;;;;;;;54.10;49.50;;;;;;;27.22;83.61;99522.32;109464;1253;73826;-69
2023/08/11 07:30:55;;;;;;;15.70;14.50;;;;;;;27.40;83.02;99523.05;109481;1253;66452;-69
2023/08/11 07:33:22;;;;;;;6.00;5.50;;;;;;;27.57;81.94;99525.83;109333;1253;71388;-70
2023/08/11 07:35:50;;;;;;;3.90;3.50;;;;;;;27.67;81.27;99521.19;109463;1253;59230;-71
2023/08/11 07:38:20;;;;;;;3.20;2.90;;;;;;;27.67;79.82;99523.72;109487;1253;58883;-72
2023/08/11 07:40:47;;;;;;;3.20;2.60;;;;;;;27.72;80.01;99523.98;109394;1253;72627;-72
2023/08/11 07:43:15;;;;;;;2.70;1.90;;;;;;;27.97;80.09;99520.81;109453;1253;66338;-69
2023/08/11 07:45:42;;;;;;;2.70;2.30;;;;;;;28.20;77.83;99525.66;109476;1253;71394;-72
2023/08/11 07:48:10;;;;;;;5.50;2.60;;;;;;;28.43;75.38;99523.10;109463;1253;60112;-75
2023/08/11 07:50:38;;;;;;;2.60;2.30;;;;;;;28.61;73.18;99522.85;109466;1253;58726;-73
2023/08/11 07:53:05;;;;;;;3.60;2.20;;;;;;;28.77;70.60;99521.30;109471;1254;72947;-69
2023/08/11 07:55:32;;;;;;;9.90;2.40;;;;;;;28.87;69.98;99522.85;109498;1253;66795;-69
2023/08/11 07:58:00;;;;;;;4.20;2.40;;;;;;;29.06;69.35;99520.96;109448;1254;71758;-72
2023/08/11 08:00:27;;;;;;;5.10;2.40;;;;;;;29.28;68.75;99521.94;109454;1253;60044;-71
2023/08/11 08:02:55;;;;;;;3.90;2.10;;;;;;;29.50;67.22;99521.80;109443;1253;62390;-70
2023/08/11 08:05:22;;;;;;;3.20;1.80;;;;;;;29.46;65.27;99522.79;109371;1253;74113;-69
2023/08/11 08:07:50;;;;;;;3.00;2.20;;;;;;;29.31;64.95;99518.58;109471;1253;66770;-71
2023/08/11 08:10:20;;;;;;;2.10;1.90;;;;;;;29.05;64.43;99518.55;109430;1253;70375;-70
2023/08/11 08:12:47;;;;;;;2.50;2.20;;;;;;;28.87;65.74;99519.95;109433;1253;58810;-72
2023/08/11 08:15:16;;;;;;;3.40;2.40;;;;;;;28.78;65.83;99521.11;109449;1253;60554;-70
2023/08/11 08:17:44;;;;;;;3.90;2.20;;;;;;;28.77;67.01;99516.04;109479;1253;73884;-74
2023/08/11 08:20:13;;;;;;;4.70;2.40;;;;;;;28.89;67.15;99512.76;109484;1253;67644;-71
2023/08/11 08:22:41;;;;;;;2.90;2.20;;;;;;;29.03;67.38;99510.64;109469;1253;72673;-74
2023/08/11 08:25:09;;;;;;;4.20;2.90;;;;;;;29.20;66.54;99512.02;109481;1253;58800;-73
2023/08/11 08:27:37;;;;;;;2.70;2.20;;;;;;;29.23;65.62;99514.17;109376;1253;58751;-74
2023/08/11 08:30:05;;;;;;;4.50;2.80;;;;;;;29.25;64.86;99519.73;109457;1253;74315;-77
2023/08/11 08:32:32;;;;;;;2.50;2.30;;;;;;;29.31;64.03;99521.09;109455;1253;67284;-73
2023/08/11 08:35:00;;;;;;;2.90;2.60;;;;;;;29.40;63.27;99517.66;109367;1254;72107;-74
2023/08/11 08:37:28;;;;;;;4.80;2.30;;;;;;;29.47;63.51;99514.83;109459;1253;58921;-72
2023/08/11 08:39:56;;;;;;;3.50;2.50;;;;;;;29.74;64.13;99512.40;109365;1253;60002;-73
2023/08/11 08:42:25;;;;;;;8.00;3.10;;;;;;;30.15;62.78;99504.58;109393;1254;73779;-62
2023/08/11 08:44:53;;;;;;;6.40;2.90;;;;;;;30.51;61.06;99505.67;109386;1253;67789;-65
2023/08/11 08:47:21;;;;;;;4.30;2.80;;;;;;;30.89;58.01;99510.76;109218;1253;72702;-66
2023/08/11 08:49:48;;;;;;;2.40;2.10;;;;;;;31.23;55.06;99507.15;109388;1253;58103;-64
2023/08/11 08:52:16;;;;;;;4.60;2.20;;;;;;;31.31;52.66;99508.59;109436;1252;60033;-64
2023/08/11 08:54:44;;;;;;;3.30;2.50;;;;;;;31.03;52.18;99514.98;109448;1253;73867;-76
2023/08/11 08:57:11;;;;;;;2.50;2.30;;;;;;;30.82;53.05;99515.37;109458;1252;66586;-79
2023/08/11 08:59:43;;;;;;;2.20;2.00;;;;;;;30.76;54.08;99517.50;109457;1255;71373;-76
2023/08/11 09:02:10;;;;;;;5.10;2.30;;;;;;;30.65;54.19;99518.28;109465;1254;58805;-77
2023/08/11 09:04:38;;;;;;;4.10;2.30;;;;;;;30.40;55.14;99517.54;109352;1253;58814;-74
2023/08/11 09:07:06;;;;;;;2.30;2.10;;;;;;;30.20;55.55;99513.99;109286;1253;72660;-67
2023/08/11 09:09:35;;;;;;;2.80;2.10;;;;;;;29.92;56.66;99516.40;109466;1252;67742;-67
2023/08/11 09:12:03;;;;;;;3.40;2.30;;;;;;;29.73;58.15;99515.84;109414;1254;72773;-62
2023/08/11 09:14:30;;;;;;;3.40;2.10;;;;;;;29.63;59.62;99517.64;109435;1253;58769;-66
2023/08/11 09:16:58;;;;;;;5.20;2.60;;;;;;;29.42;59.88;99514.61;109471;1254;59037;-68
2023/08/11 09:19:25;;;;;;;5.00;2.80;;;;;;;29.03;62.03;99516.23;109526;1254;73865;-67
2023/08/11 09:21:53;;;;;;;4.60;2.90;;;;;;;28.58;65.47;99527.14;109434;1253;67079;-62
2023/08/11 09:24:22;;;;;;;5.70;2.60;;;;;;;28.05;69.46;99536.36;109464;1253;72921;-62
2023/08/11 09:26:50;;;;;;;2.90;2.50;;;;;;;27.62;73.94;99542.96;109460;1254;60049;-66
2023/08/11 09:29:18;;;;;;;3.00;2.70;;;;;;;27.50;77.91;99546.30;109442;1254;59262;-68
2023/08/11 09:31:52;;;;;;;4.30;2.70;;;;;;;27.44;80.03;99549.20;109514;1253;74452;-63
2023/08/11 09:34:20;;;;;;;8.00;2.90;;;;;;;27.18;83.04;99553.51;109450;1254;68092;-61
2023/08/11 09:36:48;;;;;;;3.30;3.00;;;;;;;26.86;85.09;99557.38;109416;1253;72742;-63
2023/08/11 09:39:16;;;;;;;4.20;2.70;;;;;;;26.49;88.94;99558.51;109439;1254;60219;-65
2023/08/11 09:41:47;;;;;;;3.50;3.00;;;;;;;26.26;93.01;99561.52;109342;1255;59997;-65
2023/08/11 09:44:18;;;;;;;3.80;2.70;;;;;;;26.05;95.98;99561.40;109525;1254;73847;-70
2023/08/11 09:46:47;;;;;;;4.10;2.90;;;;;;;25.82;98.15;99561.81;109475;1253;68326;-70
2023/08/11 09:49:17;;;;;;;3.10;2.80;;;;;;;25.58;98.96;99565.38;109401;1255;72676;-70
2023/08/11 09:51:44;;;;;;;2.90;2.70;;;;;;;25.30;99.64;99570.10;109460;1253;58799;-71
2023/08/11 09:54:13;;;;;;;2.90;2.70;;;;;;;25.00;99.89;99571.12;109373;1253;58735;-70
2023/08/11 09:56:41;;;;;;;4.40;2.70;;;;;;;24.79;100.00;99581.16;109391;1254;73875;-71
2023/08/11 09:59:13;;;;;;;5.30;3.00;;;;;;;24.65;100.00;99583.10;109419;1254;67567;-70
2023/08/11 10:01:44;;;;;;;3.40;3.10;;;;;;;24.50;100.00;99584.38;109439;1253;72675;-69
2023/08/11 10:04:33;;;;;;;3.20;2.80;;;;;;;24.45;100.00;99587.61;109461;1253;60142;-74
2023/08/11 10:07:01;;;;;;;3.20;2.50;;;;;;;24.44;100.00;99588.52;109296;1253;60049;-69
2023/08/11 10:09:29;;;;;;;6.00;2.90;;;;;;;24.40;100.00;99588.86;109143;1253;73862;-68
2023/08/11 10:11:57;;;;;;;3.40;2.50;;;;;;;24.34;100.00;99586.56;109469;1254;67598;-69
2023/08/11 10:14:25;;;;;;;2.90;2.70;;;;;;;24.26;100.00;99585.29;109354;1254;72131;-71
2023/08/11 10:16:53;;;;;;;4.90;3.10;;;;;;;24.19;100.00;99581.80;109283;1253;58773;-68
2023/08/11 10:19:20;;;;;;;3.00;2.80;;;;;;;24.13;100.00;99582.33;109539;1254;60023;-70
2023/08/11 10:21:47;;;;;;;2.70;2.50;;;;;;;24.05;100.00;99579.33;109384;1254;73927;-71
2023/08/11 10:24:15;;;;;;;6.60;3.60;;;;;;;24.02;100.00;99583.64;109436;1253;66346;-73
2023/08/11 10:26:42;;;;;;;3.20;3.00;;;;;;;23.97;100.00;99584.95;109442;1254;71379;-70
2023/08/11 10:29:11;;;;;;;3.40;3.00;;;;;;;23.87;100.00;99582.11;109331;1254;60097;-71
2023/08/11 10:31:52;;;;;;;3.10;2.70;;;;;;;23.75;100.00;99581.91;109495;1254;58860;-69
2023/08/11 10:34:21;;;;;;;3.00;2.80;;;;;;;23.65;100.00;99578.91;109344;1253;73857;-70
2023/08/11 10:36:49;;;;;;;3.90;3.20;;;;;;;23.54;100.00;99577.52;109476;1254;69258;-67
2023/08/11 10:39:17;;;;;;;3.60;2.80;;;;;;;23.43;100.00;99575.63;109436;1253;73126;-68
2023/08/11 10:41:45;;;;;;;3.20;2.90;;;;;;;23.29;100.00;99575.13;109474;1253;60158;-69
2023/08/11 10:44:17;;;;;;;4.00;2.80;;;;;;;23.14;100.00;99575.09;109383;1254;58732;-66
2023/08/11 10:46:45;;;;;;;4.30;3.10;;;;;;;23.01;100.00;99573.75;109415;1254;72609;-66
2023/08/11 10:49:12;;;;;;;4.50;3.10;;;;;;;22.88;100.00;99574.80;109427;1253;66824;-69
2023/08/11 10:51:40;;;;;;;4.30;3.30;;;;;;;22.76;100.00;99576.81;109411;1252;72746;-68
2023/08/11 10:54:11;;;;;;;3.70;3.40;;;;;;;22.62;100.00;99575.89;109412;1253;60527;-66
2023/08/11 10:56:39;;;;;;;4.40;3.90;;;;;;;22.49;100.00;99577.54;109393;1253;60148;-68
2023/08/11 10:59:16;;;;;;;4.50;4.10;;;;;;;22.36;100.00;99575.96;109366;1254;73927;-68
2023/08/11 11:01:45;;;;;;;4.70;4.30;;;;;;;22.23;100.00;99575.60;109447;1254;67951;-67
2023/08/11 11:04:13;;;;;;;7.40;4.60;;;;;;;22.17;100.00;99575.54;109436;1254;72740;-66
2023/08/11 11:06:41;;;;;;;6.60;4.80;;;;;;;22.17;100.00;99573.86;109411;1252;58648;-66
2023/08/11 11:09:08;;;;;;;5.30;3.90;;;;;;;22.13;100.00;99571.27;109447;1252;60018;-66
2023/08/11 11:11:36;;;;;;;3.90;3.50;;;;;;;22.09;100.00;99566.90;109392;1253;73998;-66
2023/08/11 11:14:05;;;;;;;4.20;3.10;;;;;;;22.03;100.00;99568.37;109406;1254;67658;-66
2023/08/11 11:16:32;;;;;;;5.10;2.80;;;;;;;21.99;100.00;99565.04;109373;1254;72686;-67
2023/08/11 11:19:00;;;;;;;5.20;2.30;;;;;;;21.94;100.00;99564.88;109360;1253;60093;-64
2023/08/11 11:21:28;;;;;;;3.30;2.70;;;;;;;21.87;100.00;99561.23;109449;1252;58773;-69
2023/08/11 11:23:56;;;;;;;2.30;2.10;;;;;;;21.83;100.00;99561.07;109440;1252;72603;-68
2023/08/11 11:26:31;;;;;;;4.40;2.70;;;;;;;21.79;100.00;99560.59;109508;1254;66803;-67
2023/08/11 11:29:03;;;;;;;5.80;2.70;;;;;;;21.72;100.00;99561.27;109414;1253;73280;-65
2023/08/11 11:31:32;;;;;;;6.10;2.60;;;;;;;21.69;100.00;99561.04;109268;1254;60833;-67
2023/08/11 11:33:59;;;;;;;5.70;2.30;;;;;;;21.66;100.00;99556.65;109400;1254;58744;-66
2023/08/11 11:36:27;;;;;;;2.90;2.00;;;;;;;21.63;100.00;99555.78;109242;1253;72616;-67